Time;durP1;ratioP1;P1;durP2;ratioP2;P2;SDS_P1;SDS_P2;PMS_P1;PMS_P2;Temp;Humidity;BMP_temperature;BMP_pressure;BME280_temperature;BME280_humidity;BME280_pressure;Samples;Min_cycle;Max_cycle;Signal;HPM_P1;HPM_P2
2022/07/06 00:01:46;;;;;;;;;;;27.10;40.30;;;;;;5045440;28;20280;-61
2022/07/06 00:04:12;;;;;;;;;;;27.10;40.40;;;;;;5046137;28;19986;-61
2022/07/06 00:06:37;;;;;;;;;;;27.10;40.40;;;;;;5046048;28;20048;-61
2022/07/06 00:09:03;;;;;;;;;;;27.10;40.40;;;;;;5043323;28;19919;-61
2022/07/06 00:11:29;;;;;;;;;;;27.10;40.50;;;;;;5044556;28;19963;-60
2022/07/06 00:13:56;;;;;;;;;;;27.10;40.50;;;;;;5041700;28;19955;-61
2022/07/06 00:16:21;;;;;;;;;;;27.10;40.50;;;;;;5047002;28;19913;-60
2022/07/06 00:18:47;;;;;;;;;;;27.10;40.40;;;;;;5046518;28;20301;-61
2022/07/06 00:21:12;;;;;;;;;;;27.10;40.50;;;;;;5043768;28;19908;-61
2022/07/06 00:23:38;;;;;;;;;;;27.10;40.50;;;;;;5045473;28;19921;-61
2022/07/06 00:26:03;;;;;;;;;;;27.10;40.50;;;;;;5047125;28;20019;-61
2022/07/06 00:28:28;;;;;;;;;;;27.10;40.60;;;;;;5043779;28;19956;-61
2022/07/06 00:30:54;;;;;;;;;;;27.00;40.60;;;;;;5042093;28;20410;-61
2022/07/06 00:33:19;;;;;;;;;;;27.00;40.70;;;;;;5042600;28;20311;-61
2022/07/06 00:35:45;;;;;;;;;;;27.00;40.70;;;;;;5042597;28;20341;-61
2022/07/06 00:38:10;;;;;;;;;;;27.00;40.60;;;;;;5042211;28;19913;-61
2022/07/06 00:40:36;;;;;;;;;;;27.00;40.70;;;;;;5041832;28;19919;-61
2022/07/06 00:43:01;;;;;;;;;;;27.00;40.80;;;;;;5045045;28;19984;-61
2022/07/06 00:45:27;;;;;;;;;;;27.00;40.90;;;;;;5044823;28;19913;-60
2022/07/06 00:47:52;;;;;;;;;;;26.90;40.80;;;;;;5043261;28;20289;-61
2022/07/06 00:50:20;;;;;;;;;;;27.00;40.90;;;;;;5045305;28;19963;-61
2022/07/06 00:52:53;;;;;;;;;;;26.90;40.90;;;;;;5044761;28;20352;-61
2022/07/06 00:55:22;;;;;;;;;;;26.90;41.00;;;;;;5045094;28;20288;-61
2022/07/06 00:57:47;;;;;;;;;;;26.90;41.00;;;;;;5043374;28;20084;-61
2022/07/06 01:00:14;;;;;;;;;;;26.90;40.90;;;;;;5042809;28;20010;-61
2022/07/06 01:02:40;;;;;;;;;;;26.90;41.00;;;;;;5043692;28;19927;-60
2022/07/06 01:05:06;;;;;;;;;;;26.90;40.90;;;;;;5042728;28;19917;-61
2022/07/06 01:07:31;;;;;;;;;;;26.90;40.90;;;;;;5045850;28;19913;-61
2022/07/06 01:09:57;;;;;;;;;;;26.90;40.90;;;;;;5044844;28;19921;-61
2022/07/06 01:12:22;;;;;;;;;;;26.90;40.90;;;;;;5045338;28;19920;-61
2022/07/06 01:14:48;;;;;;;;;;;26.90;41.00;;;;;;5042722;28;19926;-61
2022/07/06 01:17:13;;;;;;;;;;;26.90;41.00;;;;;;5028616;28;19916;-61
2022/07/06 01:19:39;;;;;;;;;;;26.80;40.90;;;;;;5043480;28;20308;-61
2022/07/06 01:22:04;;;;;;;;;;;26.80;41.00;;;;;;5044049;28;19917;-61
2022/07/06 01:24:30;;;;;;;;;;;26.80;41.00;;;;;;5042377;28;20289;-61
2022/07/06 01:26:55;;;;;;;;;;;26.80;41.10;;;;;;5045492;28;20381;-61
2022/07/06 01:29:21;;;;;;;;;;;26.80;41.10;;;;;;5048060;28;20345;-61
2022/07/06 01:31:48;;;;;;;;;;;26.80;41.70;;;;;;5048442;28;19944;-60
2022/07/06 01:34:14;;;;;;;;;;;26.80;41.10;;;;;;5048473;28;19927;-61
2022/07/06 01:36:39;;;;;;;;;;;26.80;41.10;;;;;;5049500;28;20055;-61
2022/07/06 01:39:05;;;;;;;;;;;26.80;41.10;;;;;;5049492;28;19924;-61
2022/07/06 01:41:30;;;;;;;;;;;26.80;41.20;;;;;;5048282;28;19962;-61
2022/07/06 01:43:56;;;;;;;;;;;26.70;41.20;;;;;;5048488;28;20388;-61
2022/07/06 01:46:21;;;;;;;;;;;26.70;41.20;;;;;;5047524;28;19996;-61
2022/07/06 01:48:47;;;;;;;;;;;26.70;41.20;;;;;;5048668;28;19916;-61
2022/07/06 01:51:12;;;;;;;;;;;26.70;41.20;;;;;;5047232;28;19959;-61
2022/07/06 01:53:38;;;;;;;;;;;26.70;41.20;;;;;;5048214;28;19923;-61
2022/07/06 01:56:03;;;;;;;;;;;26.70;41.20;;;;;;5049100;28;20430;-61
2022/07/06 01:58:29;;;;;;;;;;;26.70;41.30;;;;;;5046542;28;19917;-61
2022/07/06 02:00:54;;;;;;;;;;;26.70;41.30;;;;;;5048754;28;19913;-60
2022/07/06 02:03:20;;;;;;;;;;;26.70;41.20;;;;;;5046212;28;19927;-61
2022/07/06 02:05:45;;;;;;;;;;;26.70;41.20;;;;;;5048341;28;19921;-60
2022/07/06 02:08:11;;;;;;;;;;;26.70;41.20;;;;;;5048115;28;19913;-61
2022/07/06 02:10:36;;;;;;;;;;;26.70;41.20;;;;;;5043617;28;19917;-60
2022/07/06 02:13:01;;;;;;;;;;;26.70;41.20;;;;;;5046713;28;19913;-60
2022/07/06 02:15:27;;;;;;;;;;;26.70;41.20;;;;;;5030155;28;19922;-60
2022/07/06 02:17:52;;;;;;;;;;;26.70;41.20;;;;;;5047205;28;20018;-61
2022/07/06 02:20:18;;;;;;;;;;;26.60;41.20;;;;;;5047149;28;20043;-61
2022/07/06 02:22:43;;;;;;;;;;;26.60;41.30;;;;;;5044724;28;19920;-61
2022/07/06 02:25:09;;;;;;;;;;;26.60;41.20;;;;;;5048426;28;19913;-61
2022/07/06 02:27:34;;;;;;;;;;;26.60;41.30;;;;;;5044922;28;19913;-61
2022/07/06 02:29:59;;;;;;;;;;;26.60;41.30;;;;;;5047231;28;20003;-61
2022/07/06 02:32:25;;;;;;;;;;;26.60;41.20;;;;;;5047489;28;20387;-61
2022/07/06 02:34:50;;;;;;;;;;;26.60;41.20;;;;;;5047749;28;19917;-60
2022/07/06 02:37:16;;;;;;;;;;;26.60;41.20;;;;;;5047060;28;19927;-61
2022/07/06 02:39:41;;;;;;;;;;;26.60;41.30;;;;;;5039538;28;19912;-61
2022/07/06 02:42:07;;;;;;;;;;;26.60;41.40;;;;;;5044786;28;19917;-59
2022/07/06 02:44:32;;;;;;;;;;;26.60;41.40;;;;;;5048141;28;19913;-60
2022/07/06 02:46:58;;;;;;;;;;;26.60;42.10;;;;;;5046463;28;19917;-61
2022/07/06 02:49:23;;;;;;;;;;;26.60;41.40;;;;;;5046524;28;20324;-61
2022/07/06 02:51:49;;;;;;;;;;;26.50;41.40;;;;;;5048441;28;19917;-61
2022/07/06 02:54:14;;;;;;;;;;;26.50;41.40;;;;;;5047221;28;19917;-61
2022/07/06 02:56:39;;;;;;;;;;;26.60;41.40;;;;;;5045137;28;19925;-61
2022/07/06 02:59:05;;;;;;;;;;;26.60;41.40;;;;;;5046034;28;19916;-60
2022/07/06 03:01:30;;;;;;;;;;;26.60;41.50;;;;;;5044938;28;20007;-61
2022/07/06 03:03:56;;;;;;;;;;;26.50;42.20;;;;;;5045917;28;20372;-61
2022/07/06 03:06:21;;;;;;;;;;;26.50;41.50;;;;;;5047032;28;20000;-61
2022/07/06 03:08:47;;;;;;;;;;;26.50;41.60;;;;;;5046774;28;19920;-61
2022/07/06 03:11:12;;;;;;;;;;;26.50;41.60;;;;;;5048480;28;19967;-61
2022/07/06 03:13:38;;;;;;;;;;;26.50;41.70;;;;;;5046265;28;19913;-60
2022/07/06 03:16:03;;;;;;;;;;;26.50;41.70;;;;;;5048931;28;20015;-60
2022/07/06 03:18:29;;;;;;;;;;;26.50;41.70;;;;;;5043809;28;19917;-61
2022/07/06 03:20:54;;;;;;;;;;;26.50;41.80;;;;;;5046059;28;19913;-61
2022/07/06 03:23:20;;;;;;;;;;;26.50;41.80;;;;;;5046621;28;19927;-60
2022/07/06 03:25:45;;;;;;;;;;;26.50;41.90;;;;;;5047245;28;19917;-61
2022/07/06 03:28:11;;;;;;;;;;;26.50;41.90;;;;;;5045589;28;20015;-61
2022/07/06 03:30:36;;;;;;;;;;;26.40;41.80;;;;;;5047570;28;19920;-61
2022/07/06 03:33:01;;;;;;;;;;;26.40;41.90;;;;;;5045558;28;19920;-61
2022/07/06 03:35:27;;;;;;;;;;;26.40;41.80;;;;;;5044363;28;20365;-60
2022/07/06 03:37:52;;;;;;;;;;;26.40;41.80;;;;;;5047240;28;20676;-61
2022/07/06 03:40:18;;;;;;;;;;;26.40;41.90;;;;;;5048899;28;19919;-60
2022/07/06 03:42:43;;;;;;;;;;;26.40;41.90;;;;;;5044247;28;19917;-61
2022/07/06 03:45:09;;;;;;;;;;;26.40;42.00;;;;;;5045134;28;19916;-61
2022/07/06 03:47:34;;;;;;;;;;;26.40;42.00;;;;;;5044575;28;20003;-61
2022/07/06 03:50:00;;;;;;;;;;;26.40;42.10;;;;;;5044359;28;19917;-61
2022/07/06 03:52:25;;;;;;;;;;;26.30;42.10;;;;;;5044479;28;19917;-61
2022/07/06 03:54:51;;;;;;;;;;;26.30;42.10;;;;;;5047187;28;19960;-60
2022/07/06 03:57:16;;;;;;;;;;;26.30;42.10;;;;;;5045467;28;19913;-61
2022/07/06 03:59:42;;;;;;;;;;;26.30;42.10;;;;;;5043973;28;19917;-61
2022/07/06 04:02:07;;;;;;;;;;;26.30;42.10;;;;;;5044722;28;19916;-61
2022/07/06 04:04:35;;;;;;;;;;;26.40;42.20;;;;;;5044213;28;19913;-61
2022/07/06 04:07:01;;;;;;;;;;;26.30;42.10;;;;;;5044895;28;19920;-61
2022/07/06 04:09:26;;;;;;;;;;;26.30;42.10;;;;;;5043888;28;20353;-61
2022/07/06 04:11:52;;;;;;;;;;;26.30;42.10;;;;;;5044686;28;19927;-59
2022/07/06 04:14:17;;;;;;;;;;;26.30;42.20;;;;;;5045574;28;19963;-61
2022/07/06 04:16:43;;;;;;;;;;;26.30;42.20;;;;;;5043616;28;19935;-61
2022/07/06 04:19:08;;;;;;;;;;;26.20;42.20;;;;;;5045652;28;19921;-61
2022/07/06 04:21:34;;;;;;;;;;;26.30;42.30;;;;;;5044497;28;20373;-61
2022/07/06 04:23:59;;;;;;;;;;;26.30;42.30;;;;;;5046198;28;19920;-61
2022/07/06 04:26:25;;;;;;;;;;;26.20;42.30;;;;;;5046004;28;19917;-61
2022/07/06 04:28:50;;;;;;;;;;;26.30;42.30;;;;;;5043363;28;19917;-61
2022/07/06 04:31:16;;;;;;;;;;;26.30;42.30;;;;;;5046242;28;19955;-60
2022/07/06 04:33:42;;;;;;;;;;;26.30;42.30;;;;;;5044329;28;19982;-60
2022/07/06 04:36:08;;;;;;;;;;;26.30;42.20;;;;;;5044404;28;20315;-60
2022/07/06 04:38:34;;;;;;;;;;;26.30;42.20;;;;;;5042479;28;20004;-60
2022/07/06 04:40:59;;;;;;;;;;;26.20;42.10;;;;;;5040497;28;19913;-61
2022/07/06 04:43:24;;;;;;;;;;;26.20;42.10;;;;;;5043723;28;19917;-61
2022/07/06 04:45:50;;;;;;;;;;;26.20;42.10;;;;;;5045049;28;19960;-61
2022/07/06 04:48:15;;;;;;;;;;;26.30;42.10;;;;;;5043311;28;19917;-61
2022/07/06 04:50:41;;;;;;;;;;;26.20;42.10;;;;;;5045294;28;19920;-61
2022/07/06 04:53:06;;;;;;;;;;;26.20;42.10;;;;;;5045529;28;20399;-61
2022/07/06 04:55:32;;;;;;;;;;;26.20;42.00;;;;;;5042975;28;20289;-62
2022/07/06 04:57:57;;;;;;;;;;;26.20;42.10;;;;;;5043190;28;20028;-61
2022/07/06 05:00:23;;;;;;;;;;;26.20;42.10;;;;;;5045477;28;20015;-61
2022/07/06 05:02:48;;;;;;;;;;;26.20;42.10;;;;;;5044824;28;19924;-60
2022/07/06 05:05:14;;;;;;;;;;;26.20;42.10;;;;;;5043985;28;19916;-60
2022/07/06 05:07:39;;;;;;;;;;;26.20;42.20;;;;;;5042927;28;19999;-61
2022/07/06 05:10:12;;;;;;;;;;;26.20;42.10;;;;;;5044785;28;19923;-60
2022/07/06 05:12:37;;;;;;;;;;;26.20;42.20;;;;;;5043481;28;19912;-61
2022/07/06 05:15:03;;;;;;;;;;;26.20;42.20;;;;;;5043354;28;19929;-61
2022/07/06 05:17:28;;;;;;;;;;;26.20;42.20;;;;;;5043509;28;20300;-61
2022/07/06 05:19:54;;;;;;;;;;;26.20;42.20;;;;;;5040825;28;19917;-61
2022/07/06 05:22:19;;;;;;;;;;;26.20;42.30;;;;;;5044533;28;19974;-61
2022/07/06 05:24:45;;;;;;;;;;;26.10;42.20;;;;;;5042759;28;20422;-61
2022/07/06 05:27:10;;;;;;;;;;;26.20;42.30;;;;;;5042627;28;20446;-61
2022/07/06 05:29:36;;;;;;;;;;;26.10;42.30;;;;;;5042290;28;20296;-61
2022/07/06 05:32:01;;;;;;;;;;;26.10;42.30;;;;;;5044935;28;19917;-61
2022/07/06 05:34:27;;;;;;;;;;;26.10;42.30;;;;;;5042556;28;19916;-61
2022/07/06 05:36:52;;;;;;;;;;;26.10;42.40;;;;;;5044622;28;19923;-60
2022/07/06 05:39:20;;;;;;;;;;;26.10;42.40;;;;;;5043206;28;20337;-60
2022/07/06 05:41:46;;;;;;;;;;;26.10;42.40;;;;;;5042328;28;19978;-60
2022/07/06 05:44:11;;;;;;;;;;;26.00;42.40;;;;;;5041096;28;19913;-60
2022/07/06 05:46:37;;;;;;;;;;;26.00;42.40;;;;;;5043364;28;20344;-61
2022/07/06 05:51:46;;;;;;;;;;;26.00;42.40;;;;;;5043264;28;19928;-61
2022/07/06 05:54:12;;;;;;;;;;;26.00;42.40;;;;;;5042840;28;19924;-61
2022/07/06 05:56:37;;;;;;;;;;;26.00;42.50;;;;;;5043756;28;19920;-61
2022/07/06 05:59:03;;;;;;;;;;;26.00;42.60;;;;;;5039231;28;20003;-61
2022/07/06 06:01:28;;;;;;;;;;;26.00;42.50;;;;;;5044858;28;20364;-60
2022/07/06 06:03:53;;;;;;;;;;;26.00;42.50;;;;;;5043570;28;19921;-60
2022/07/06 06:06:19;;;;;;;;;;;26.00;42.50;;;;;;5044482;28;19912;-61
2022/07/06 06:08:44;;;;;;;;;;;26.00;42.60;;;;;;5042372;28;19971;-61
2022/07/06 06:11:10;;;;;;;;;;;26.00;42.60;;;;;;5045176;28;19917;-61
2022/07/06 06:13:35;;;;;;;;;;;26.00;42.70;;;;;;5045954;28;19970;-61
2022/07/06 06:16:01;;;;;;;;;;;26.00;42.70;;;;;;5049437;28;19928;-60
2022/07/06 06:18:26;;;;;;;;;;;26.00;42.70;;;;;;5047961;28;19913;-60
2022/07/06 06:20:52;;;;;;;;;;;26.00;42.70;;;;;;5046703;28;19916;-60
2022/07/06 06:23:17;;;;;;;;;;;26.00;42.80;;;;;;5046748;28;19919;-61
2022/07/06 06:25:42;;;;;;;;;;;25.90;42.80;;;;;;5048081;28;19939;-60
2022/07/06 06:28:08;;;;;;;;;;;25.90;42.80;;;;;;5041418;28;19916;-60
2022/07/06 06:30:34;;;;;;;;;;;25.90;42.90;;;;;;5046456;28;19916;-60
2022/07/06 06:33:06;;;;;;;;;;;25.80;43.00;;;;;;5047000;28;19913;-60
2022/07/06 06:35:31;;;;;;;;;;;25.80;43.00;;;;;;5046861;28;19925;-60
2022/07/06 06:37:56;;;;;;;;;;;25.80;43.10;;;;;;5046114;28;19927;-60
2022/07/06 06:40:22;;;;;;;;;;;25.80;43.20;;;;;;5045706;28;20404;-61
2022/07/06 06:42:47;;;;;;;;;;;25.80;43.30;;;;;;5040554;28;20814;-60
2022/07/06 06:45:13;;;;;;;;;;;25.80;43.20;;;;;;5044862;28;19921;-60
2022/07/06 06:47:38;;;;;;;;;;;25.80;43.20;;;;;;5046923;28;19924;-60
2022/07/06 06:50:04;;;;;;;;;;;25.80;43.20;;;;;;5046132;28;19916;-61
2022/07/06 06:52:30;;;;;;;;;;;25.80;43.10;;;;;;5047508;28;20008;-61
2022/07/06 06:54:55;;;;;;;;;;;25.80;43.10;;;;;;5046196;28;19917;-60
2022/07/06 06:57:21;;;;;;;;;;;25.80;43.00;;;;;;5050404;28;20418;-60
2022/07/06 06:59:46;;;;;;;;;;;25.80;43.00;;;;;;5047192;28;20399;-61
2022/07/06 07:02:11;;;;;;;;;;;25.80;42.90;;;;;;5045296;28;20458;-60
2022/07/06 07:04:37;;;;;;;;;;;25.90;43.00;;;;;;5050226;28;20260;-61
2022/07/06 07:07:03;;;;;;;;;;;25.80;42.90;;;;;;5040604;28;19913;-61
2022/07/06 07:09:28;;;;;;;;;;;25.90;42.90;;;;;;5047141;28;19928;-62
2022/07/06 07:11:54;;;;;;;;;;;25.90;42.90;;;;;;5044755;28;19917;-61
2022/07/06 07:14:20;;;;;;;;;;;25.90;42.80;;;;;;5047826;28;19921;-61
2022/07/06 07:16:45;;;;;;;;;;;25.90;42.80;;;;;;5050277;28;19921;-61
2022/07/06 07:19:11;;;;;;;;;;;26.00;42.90;;;;;;5051877;28;19913;-61
2022/07/06 07:21:36;;;;;;;;;;;26.00;42.70;;;;;;5042603;28;19917;-61
2022/07/06 07:24:02;;;;;;;;;;;26.00;42.70;;;;;;5048103;28;19912;-61
2022/07/06 07:26:28;;;;;;;;;;;26.00;42.60;;;;;;5048036;28;20003;-60
2022/07/06 07:28:53;;;;;;;;;;;26.10;42.60;;;;;;5046990;28;20311;-61
2022/07/06 07:31:18;;;;;;;;;;;26.10;42.70;;;;;;5046188;28;19923;-61
2022/07/06 07:33:44;;;;;;;;;;;26.10;42.60;;;;;;5046531;28;19916;-61
2022/07/06 07:36:09;;;;;;;;;;;26.10;42.50;;;;;;5044300;28;19916;-61
2022/07/06 07:38:35;;;;;;;;;;;26.20;42.50;;;;;;5051761;28;19958;-60
2022/07/06 07:41:00;;;;;;;;;;;26.20;42.50;;;;;;5052115;28;19913;-60
2022/07/06 07:43:26;;;;;;;;;;;26.20;42.50;;;;;;5052425;28;19995;-60
2022/07/06 07:45:51;;;;;;;;;;;26.20;42.50;;;;;;5050115;28;19913;-60
2022/07/06 07:48:17;;;;;;;;;;;26.20;42.50;;;;;;5050207;28;20310;-61
2022/07/06 07:50:42;;;;;;;;;;;26.20;42.60;;;;;;5054673;28;20559;-60
2022/07/06 07:53:08;;;;;;;;;;;26.20;42.50;;;;;;5052231;28;20404;-60
2022/07/06 07:55:33;;;;;;;;;;;26.20;42.50;;;;;;5052074;28;20278;-61
2022/07/06 07:57:59;;;;;;;;;;;26.20;42.50;;;;;;5048475;28;19920;-61
2022/07/06 08:00:25;;;;;;;;;;;26.10;42.50;;;;;;5056202;28;19970;-60
2022/07/06 08:02:50;;;;;;;;;;;26.10;42.50;;;;;;5046609;28;19920;-60
2022/07/06 08:05:16;;;;;;;;;;;26.10;42.70;;;;;;5046447;28;19917;-60
2022/07/06 08:07:42;;;;;;;;;;;26.10;42.60;;;;;;5050770;28;20368;-60
2022/07/06 08:10:07;;;;;;;;;;;26.10;42.60;;;;;;5050578;28;19917;-60
2022/07/06 08:12:33;;;;;;;;;;;26.10;42.70;;;;;;5051665;28;19920;-60
2022/07/06 08:14:58;;;;;;;;;;;26.10;42.70;;;;;;5052213;28;19943;-60
2022/07/06 08:17:24;;;;;;;;;;;26.10;42.70;;;;;;5060454;28;19909;-60
2022/07/06 08:19:49;;;;;;;;;;;26.10;42.80;;;;;;5050840;28;20292;-60
2022/07/06 08:22:15;;;;;;;;;;;26.10;42.70;;;;;;5051725;28;19936;-61
2022/07/06 08:24:40;;;;;;;;;;;26.20;42.70;;;;;;5051206;28;19916;-61
2022/07/06 08:27:06;;;;;;;;;;;26.20;42.70;;;;;;5051720;28;19923;-62
2022/07/06 08:29:31;;;;;;;;;;;26.20;42.80;;;;;;5051794;28;19908;-61
2022/07/06 08:31:57;;;;;;;;;;;26.10;43.00;;;;;;5050940;28;20365;-60
2022/07/06 08:34:22;;;;;;;;;;;26.00;43.00;;;;;;5051749;28;20336;-60
2022/07/06 08:36:48;;;;;;;;;;;26.10;42.90;;;;;;5051629;28;19909;-61
2022/07/06 08:39:13;;;;;;;;;;;26.10;42.70;;;;;;5051840;28;20394;-60
2022/07/06 08:41:38;;;;;;;;;;;26.10;42.70;;;;;;5050497;28;20350;-62
2022/07/06 08:44:04;;;;;;;;;;;26.20;42.60;;;;;;5051684;28;20346;-60
2022/07/06 08:46:29;;;;;;;;;;;26.10;42.70;;;;;;5048393;28;19917;-61
2022/07/06 08:48:55;;;;;;;;;;;26.10;42.70;;;;;;5044389;28;19917;-61
2022/07/06 08:51:20;;;;;;;;;;;26.10;42.70;;;;;;5049992;28;19908;-61
2022/07/06 08:53:48;;;;;;;;;;;26.20;42.70;;;;;;5048524;28;19920;-61
2022/07/06 08:56:14;;;;;;;;;;;26.10;42.70;;;;;;5048462;28;20428;-61
2022/07/06 08:58:41;;;;;;;;;;;26.10;42.70;;;;;;5047543;28;19995;-61
2022/07/06 09:01:06;;;;;;;;;;;26.10;42.70;;;;;;5050287;28;19920;-61
2022/07/06 09:03:32;;;;;;;;;;;26.20;42.60;;;;;;5048740;28;20314;-61
2022/07/06 09:05:59;;;;;;;;;;;26.20;42.70;;;;;;5051149;28;19920;-60
2022/07/06 09:08:25;;;;;;;;;;;26.10;42.70;;;;;;5049573;28;20292;-61
2022/07/06 09:10:51;;;;;;;;;;;26.00;42.90;;;;;;5048788;28;20007;-60
2022/07/06 09:13:16;;;;;;;;;;;26.10;42.90;;;;;;5025833;28;20052;-61
2022/07/06 09:15:42;;;;;;;;;;;26.10;42.90;;;;;;5046829;28;20296;-60
2022/07/06 09:18:08;;;;;;;;;;;26.10;42.90;;;;;;5048217;28;20387;-61
2022/07/06 09:20:33;;;;;;;;;;;26.10;42.70;;;;;;5045977;28;19913;-61
2022/07/06 09:23:00;;;;;;;;;;;26.10;42.90;;;;;;5042050;28;20075;-60
2022/07/06 09:25:25;;;;;;;;;;;26.10;42.90;;;;;;5041008;28;20285;-60
2022/07/06 09:27:54;;;;;;;;;;;26.10;42.80;;;;;;5046075;28;19912;-60
2022/07/06 09:30:20;;;;;;;;;;;26.20;42.70;;;;;;5046916;28;20333;-61
2022/07/06 09:32:46;;;;;;;;;;;26.20;42.80;;;;;;5042686;28;19955;-61
2022/07/06 09:35:38;;;;;;;;;;;26.20;42.70;;;;;;5046913;28;19917;-60
2022/07/06 09:38:11;;;;;;;;;;;26.20;42.70;;;;;;5042108;28;20011;-60
2022/07/06 09:40:37;;;;;;;;;;;26.20;42.80;;;;;;5048161;28;20323;-61
2022/07/06 09:43:15;;;;;;;;;;;26.10;42.90;;;;;;5050267;28;19920;-60
2022/07/06 09:45:42;;;;;;;;;;;26.20;42.90;;;;;;5047824;28;19909;-60
2022/07/06 09:48:26;;;;;;;;;;;26.20;42.80;;;;;;5050135;28;20047;-59
2022/07/06 09:50:53;;;;;;;;;;;26.20;42.90;;;;;;5051901;28;19916;-61
2022/07/06 09:53:19;;;;;;;;;;;26.10;43.20;;;;;;5050120;28;19982;-60
2022/07/06 09:55:48;;;;;;;;;;;26.00;43.10;;;;;;5052004;28;19917;-60
2022/07/06 09:58:17;;;;;;;;;;;26.00;43.20;;;;;;5049063;28;19917;-60
2022/07/06 10:00:42;;;;;;;;;;;26.00;43.30;;;;;;5050139;28;19913;-61
2022/07/06 10:03:08;;;;;;;;;;;26.00;43.20;;;;;;5051102;28;19920;-61
2022/07/06 10:05:41;;;;;;;;;;;26.00;43.10;;;;;;5049031;28;19923;-60
2022/07/06 10:08:08;;;;;;;;;;;26.00;43.20;;;;;;5052957;28;20455;-61
2022/07/06 10:10:34;;;;;;;;;;;26.00;43.30;;;;;;5042682;28;20495;-61
2022/07/06 10:13:00;;;;;;;;;;;26.00;43.30;;;;;;5052446;28;19912;-60
2022/07/06 10:15:26;;;;;;;;;;;26.00;43.20;;;;;;5050446;28;19999;-60
2022/07/06 10:17:52;;;;;;;;;;;26.00;43.30;;;;;;5052208;28;20272;-62
2022/07/06 10:20:18;;;;;;;;;;;25.90;43.50;;;;;;5048244;28;19913;-61
2022/07/06 10:22:43;;;;;;;;;;;25.80;44.30;;;;;;5050415;28;20385;-61
2022/07/06 10:25:08;;;;;;;;;;;25.80;43.60;;;;;;5050556;28;19921;-62
2022/07/06 10:27:34;;;;;;;;;;;25.80;43.60;;;;;;5050418;28;19923;-60
2022/07/06 10:29:59;;;;;;;;;;;25.80;43.60;;;;;;5051792;28;19920;-61
2022/07/06 10:32:25;;;;;;;;;;;25.90;43.40;;;;;;5044376;28;19920;-61
2022/07/06 10:34:50;;;;;;;;;;;26.00;43.20;;;;;;5052408;28;20364;-61
2022/07/06 10:37:22;;;;;;;;;;;26.10;43.00;;;;;;5050819;28;19921;-60
2022/07/06 10:42:38;;;;;;;;;;;26.10;42.70;;;;;;5050263;28;20329;-59
2022/07/06 10:45:04;;;;;;;;;;;26.10;42.70;;;;;;5039760;28;20394;-60
2022/07/06 10:47:29;;;;;;;;;;;26.00;42.80;;;;;;5050570;28;19912;-62
2022/07/06 10:49:54;;;;;;;;;;;25.90;43.00;;;;;;5048425;28;19952;-60
2022/07/06 10:52:20;;;;;;;;;;;25.90;43.10;;;;;;5049598;28;19917;-61
2022/07/06 10:54:45;;;;;;;;;;;25.80;43.20;;;;;;5047853;28;19920;-59
2022/07/06 10:57:14;;;;;;;;;;;25.80;43.40;;;;;;5048814;28;19920;-59
2022/07/06 10:59:40;;;;;;;;;;;25.80;43.50;;;;;;5051185;28;19913;-61
2022/07/06 11:02:11;;;;;;;;;;;25.70;43.60;;;;;;5050397;28;20489;-60
2022/07/06 11:04:38;;;;;;;;;;;25.70;43.60;;;;;;5054441;28;19942;-61
2022/07/06 11:07:08;;;;;;;;;;;25.70;43.60;;;;;;5050773;28;19913;-60
2022/07/06 11:09:33;;;;;;;;;;;25.80;43.40;;;;;;5055416;28;20733;-61
2022/07/06 11:11:59;;;;;;;;;;;25.90;43.20;;;;;;5038612;28;19939;-61
2022/07/06 11:14:24;;;;;;;;;;;25.90;43.40;;;;;;5042912;28;20308;-61
2022/07/06 11:16:50;;;;;;;;;;;25.80;43.40;;;;;;5049847;28;19947;-61
2022/07/06 11:19:19;;;;;;;;;;;25.80;43.50;;;;;;5051624;28;19917;-60
2022/07/06 11:21:44;;;;;;;;;;;25.70;43.60;;;;;;5050385;28;19917;-61
2022/07/06 11:24:11;;;;;;;;;;;25.70;43.60;;;;;;5053193;28;19915;-61
2022/07/06 11:26:37;;;;;;;;;;;25.70;43.60;;;;;;5062545;28;20015;-61
2022/07/06 11:29:06;;;;;;;;;;;25.70;43.70;;;;;;5051071;28;20458;-61
2022/07/06 11:31:38;;;;;;;;;;;25.70;43.80;;;;;;5050321;28;19927;-60
2022/07/06 11:34:04;;;;;;;;;;;25.70;43.90;;;;;;5041332;28;20288;-60
2022/07/06 11:36:29;;;;;;;;;;;25.70;44.10;;;;;;5049607;28;19917;-60
2022/07/06 11:38:55;;;;;;;;;;;25.70;44.00;;;;;;5045940;28;19926;-61
2022/07/06 11:41:20;;;;;;;;;;;25.80;43.90;;;;;;5052354;28;19980;-61
2022/07/06 11:43:46;;;;;;;;;;;25.70;43.90;;;;;;5052103;28;19917;-61
2022/07/06 11:46:19;;;;;;;;;;;25.80;43.70;;;;;;5046952;28;22181;-61
2022/07/06 11:48:47;;;;;;;;;;;25.90;43.70;;;;;;5050461;28;20284;-61
2022/07/06 11:51:13;;;;;;;;;;;25.90;43.70;;;;;;5050289;28;19913;-61
2022/07/06 11:53:42;;;;;;;;;;;25.90;43.70;;;;;;5042990;28;19924;-60
2022/07/06 11:56:07;;;;;;;;;;;25.90;43.80;;;;;;5036896;28;19925;-61
2022/07/06 11:58:33;;;;;;;;;;;25.90;43.70;;;;;;5050519;28;19980;-60
2022/07/06 12:01:08;;;;;;;;;;;25.90;43.70;;;;;;5046041;28;19917;-61
2022/07/06 12:03:34;;;;;;;;;;;25.80;43.60;;;;;;5046841;28;19916;-61
2022/07/06 12:06:01;;;;;;;;;;;25.80;43.80;;;;;;5048838;28;19915;-61
2022/07/06 12:08:26;;;;;;;;;;;25.80;44.00;;;;;;5050714;28;19924;-61
2022/07/06 12:10:52;;;;;;;;;;;25.80;43.80;;;;;;5054688;28;19920;-60
2022/07/06 12:13:18;;;;;;;;;;;25.80;44.20;;;;;;5048369;28;20284;-60
2022/07/06 12:15:43;;;;;;;;;;;25.90;44.10;;;;;;5045383;28;19921;-60
2022/07/06 12:18:09;;;;;;;;;;;26.00;43.90;;;;;;5048949;28;19917;-59
2022/07/06 12:20:35;;;;;;;;;;;26.00;44.20;;;;;;5050555;28;20272;-60
2022/07/06 12:23:01;;;;;;;;;;;26.00;44.00;;;;;;5049108;28;20308;-62
2022/07/06 12:25:30;;;;;;;;;;;26.00;44.10;;;;;;5050599;28;20004;-61
2022/07/06 12:27:56;;;;;;;;;;;26.00;44.10;;;;;;5050555;28;19913;-61
2022/07/06 12:30:21;;;;;;;;;;;26.00;44.00;;;;;;5050518;28;19959;-61
2022/07/06 12:32:47;;;;;;;;;;;26.00;43.80;;;;;;5049230;28;19960;-62
2022/07/06 12:35:13;;;;;;;;;;;26.10;43.90;;;;;;5050320;28;19920;-61
2022/07/06 12:37:38;;;;;;;;;;;26.10;43.80;;;;;;5050919;28;20380;-61
2022/07/06 12:40:13;;;;;;;;;;;26.10;44.00;;;;;;5047835;28;20403;-61
2022/07/06 12:42:47;;;;;;;;;;;26.10;43.80;;;;;;5036367;28;19912;-60
2022/07/06 12:45:13;;;;;;;;;;;26.10;43.80;;;;;;5050157;28;19935;-60
2022/07/06 12:47:42;;;;;;;;;;;26.10;43.50;;;;;;5049752;28;19917;-61
2022/07/06 12:50:09;;;;;;;;;;;26.10;43.60;;;;;;5049921;28;19917;-60
2022/07/06 12:52:35;;;;;;;;;;;26.10;43.50;;;;;;5050623;28;19917;-59
2022/07/06 12:55:01;;;;;;;;;;;26.10;43.50;;;;;;5046361;28;19963;-61
2022/07/06 12:57:27;;;;;;;;;;;26.10;43.40;;;;;;5046019;28;19918;-60
2022/07/06 12:59:53;;;;;;;;;;;26.10;43.50;;;;;;5047947;28;20430;-61
2022/07/06 13:02:19;;;;;;;;;;;26.10;43.20;;;;;;5047976;28;19925;-61
2022/07/06 13:04:53;;;;;;;;;;;26.00;43.20;;;;;;5049109;28;20365;-61
2022/07/06 13:07:19;;;;;;;;;;;26.00;43.20;;;;;;5043926;28;19923;-61
2022/07/06 13:09:45;;;;;;;;;;;26.00;43.20;;;;;;5050566;28;19925;-61
2022/07/06 13:12:10;;;;;;;;;;;26.10;43.20;;;;;;5050487;28;19916;-60
2022/07/06 13:14:36;;;;;;;;;;;26.10;43.30;;;;;;5051224;28;19917;-60
2022/07/06 13:17:01;;;;;;;;;;;26.00;43.50;;;;;;5050186;28;20027;-60
2022/07/06 13:19:27;;;;;;;;;;;26.00;43.60;;;;;;5050594;28;19924;-60
2022/07/06 13:21:52;;;;;;;;;;;25.90;43.30;;;;;;5051454;28;19916;-60
2022/07/06 13:24:18;;;;;;;;;;;26.00;43.30;;;;;;5055211;28;19909;-60
2022/07/06 13:26:44;;;;;;;;;;;26.00;43.20;;;;;;5054974;28;19913;-59
2022/07/06 13:29:10;;;;;;;;;;;26.00;43.10;;;;;;5054860;28;20407;-61
2022/07/06 13:31:36;;;;;;;;;;;26.10;43.10;;;;;;5055208;28;19908;-61
2022/07/06 13:34:02;;;;;;;;;;;26.10;42.90;;;;;;5045498;28;20603;-60
2022/07/06 13:36:27;;;;;;;;;;;26.10;43.10;;;;;;5055010;28;19919;-61
2022/07/06 13:38:52;;;;;;;;;;;26.10;43.10;;;;;;5050712;28;19990;-62
2022/07/06 13:41:18;;;;;;;;;;;26.10;42.60;;;;;;5055052;28;19936;-62
2022/07/06 13:43:43;;;;;;;;;;;26.10;42.70;;;;;;5048575;28;19939;-63
2022/07/06 13:46:10;;;;;;;;;;;26.10;43.20;;;;;;5051695;28;20004;-62
2022/07/06 13:48:36;;;;;;;;;;;26.00;43.20;;;;;;5059998;28;19920;-62
2022/07/06 13:51:01;;;;;;;;;;;26.00;43.20;;;;;;5043396;28;19967;-61
2022/07/06 13:53:27;;;;;;;;;;;26.00;43.30;;;;;;5055237;28;19916;-62
2022/07/06 13:55:52;;;;;;;;;;;26.00;43.40;;;;;;5047796;28;19924;-61
2022/07/06 13:58:18;;;;;;;;;;;26.00;43.30;;;;;;5045732;28;20337;-61
2022/07/06 14:00:43;;;;;;;;;;;26.00;43.20;;;;;;5041193;28;19936;-62
2022/07/06 14:03:09;;;;;;;;;;;26.00;42.90;;;;;;5050419;28;20039;-61
2022/07/06 14:05:34;;;;;;;;;;;26.10;42.80;;;;;;5053883;28;19965;-61
2022/07/06 14:08:00;;;;;;;;;;;26.10;42.70;;;;;;5052700;28;19962;-62
2022/07/06 14:10:26;;;;;;;;;;;26.10;42.90;;;;;;5044873;28;19998;-62
2022/07/06 14:12:51;;;;;;;;;;;26.10;43.00;;;;;;5048347;28;19913;-62
2022/07/06 14:15:17;;;;;;;;;;;26.10;42.90;;;;;;5055426;28;20396;-61